Terminal Aerodrome Forecast
Issued by NWS

Home | Current Version | Previous Version | Text Only | Print | Product List | Glossary On
Versions: 1 2 3 4 5 6 7 8 9 10 11 12 13 14
000
FTUS42 TJSJ 152300 RRA
TAFJPS
TAF
TJPS 152342Z 1600/1624 VRB03KT P6SM FEW030 SCT120
     FM161330 14010KT P6SM FEW030
     FM162330 06005KT P6SM FEW030 SCT060
      AMD NOT SKED TIL 160300=

USA.gov is the U.S. government's official web portal to all federal, state and local government web resources and services.